Terminal Aerodrome Forecast
Issued by NWS Pittsburgh, PA

Home | Current Version | Previous Version | Text Only | Print | Product List | Glossary On
Versions: 1 2 3 4 5 6 7 8 9 10 11 12 13 14 15 16 17 18 19 20 21 22 23 24 25 26 27 28 29 30 31 32 33 34 35
000
FTUS41 KPBZ 080316 AAC
TAFPIT
TAF AMD
KPIT 080316Z 0803/0906 00000KT P6SM -RA BKN005
      TEMPO 0803/0805 2SM SHRA BR BKN015
     FM080800 29008KT P6SM -SHRA OVC008
     FM081100 33004KT 4SM BR OVC008
     FM081700 34005KT P6SM BKN025
     FM090200 28005KT 4SM BR OVC015=

USA.gov is the U.S. government's official web portal to all federal, state and local government web resources and services.